Time;durP1;ratioP1;P1;durP2;ratioP2;P2;SDS_P1;SDS_P2;PMS_P1;PMS_P2;Temp;Humidity;BMP_temperature;BMP_pressure;BME280_temperature;BME280_humidity;BME280_pressure;Samples;Min_cycle;Max_cycle;Signal;HPM_P1;HPM_P2
2023/09/05 00:01:52;;;;;;;5.20;3.60;;;;;;;16.84;60.16;100559.96;106045;1251;60584;-75
2023/09/05 00:04:19;;;;;;;4.10;3.60;;;;;;;16.81;60.29;100560.56;106008;1251;73718;-75
2023/09/05 00:06:49;;;;;;;4.70;3.70;;;;;;;16.77;60.39;100562.41;105920;1254;70303;-74
2023/09/05 00:09:18;;;;;;;4.20;3.20;;;;;;;16.75;60.48;100564.56;106009;1251;72396;-74
2023/09/05 00:11:48;;;;;;;5.40;3.60;;;;;;;16.71;60.55;100567.13;106023;1259;60305;-73
2023/09/05 00:14:17;;;;;;;4.20;3.30;;;;;;;16.68;60.62;100565.44;106247;1256;61020;-73
2023/09/05 00:16:44;;;;;;;4.60;3.20;;;;;;;16.67;60.80;100564.73;106226;1255;72628;-73
2023/09/05 00:19:10;;;;;;;3.90;3.00;;;;;;;16.65;60.72;100566.96;106027;1253;70522;-75
2023/09/05 00:21:37;;;;;;;5.90;3.20;;;;;;;16.63;60.93;100570.61;106037;1252;60824;-75
2023/09/05 00:24:26;;;;;;;4.30;3.10;;;;;;;16.61;60.93;100569.73;105911;1253;60558;-77
2023/09/05 00:26:52;;;;;;;5.80;3.20;;;;;;;16.59;61.08;100572.15;106037;1252;60410;-76
2023/09/05 00:29:19;;;;;;;5.30;3.70;;;;;;;16.57;61.06;100572.89;106126;1257;73675;-76
2023/09/05 00:31:49;;;;;;;4.20;3.00;;;;;;;16.56;61.21;100576.14;105930;1253;70220;-76
2023/09/05 00:34:16;;;;;;;7.20;3.30;;;;;;;16.54;61.22;100576.13;106024;1252;72407;-76
2023/09/05 00:36:42;;;;;;;4.20;3.00;;;;;;;16.52;61.34;100574.41;106008;1256;60456;-75
2023/09/05 00:39:09;;;;;;;4.40;3.30;;;;;;;16.51;61.36;100574.76;105995;1251;60459;-74
2023/09/05 00:41:37;;;;;;;4.20;3.40;;;;;;;16.49;61.59;100574.07;105842;1256;73796;-75
2023/09/05 00:44:05;;;;;;;6.20;3.80;;;;;;;16.46;61.75;100570.98;105929;1251;70403;-74
2023/09/05 00:46:32;;;;;;;4.80;3.60;;;;;;;16.44;61.72;100570.80;106040;1256;73034;-74
2023/09/05 00:49:02;;;;;;;3.90;3.40;;;;;;;16.42;61.97;100572.13;106139;1252;60905;-76
2023/09/05 00:51:31;;;;;;;4.20;3.00;;;;;;;16.39;61.98;100573.20;106507;1252;60567;-73
2023/09/05 00:54:01;;;;;;;6.90;3.50;;;;;;;16.37;62.17;100577.92;106265;1250;72607;-75
2023/09/05 00:56:28;;;;;;;3.60;3.00;;;;;;;16.34;62.24;100577.75;107016;1251;70010;-76
2023/09/05 00:58:55;;;;;;;7.10;3.60;;;;;;;16.33;62.37;100578.89;107539;1256;71153;-74
2023/09/05 01:01:22;;;;;;;6.70;3.60;;;;;;;16.31;62.37;100580.32;108052;1251;60394;-76
2023/09/05 01:03:50;;;;;;;5.20;3.60;;;;;;;16.31;62.34;100580.19;106165;1254;60624;-73
2023/09/05 01:06:22;;;;;;;3.20;2.80;;;;;;;16.30;62.43;100583.88;106692;1253;73826;-75
2023/09/05 01:09:16;;;;;;;5.70;3.20;;;;;;;16.28;62.45;100589.65;106324;1254;68822;-74
2023/09/05 01:11:43;;;;;;;4.10;3.10;;;;;;;16.26;62.44;100590.60;105987;1259;71251;-75
2023/09/05 01:14:09;;;;;;;6.50;3.30;;;;;;;16.23;62.49;100590.92;105958;1258;60655;-73
2023/09/05 01:16:45;;;;;;;4.30;3.00;;;;;;;16.21;62.69;100589.12;105673;1256;60536;-76
2023/09/05 01:19:14;;;;;;;5.90;3.80;;;;;;;16.19;62.59;100592.94;105655;1254;74278;-75
2023/09/05 01:22:10;;;;;;;5.80;3.00;;;;;;;16.16;62.68;100588.40;105866;1257;70015;-73
2023/09/05 01:24:39;;;;;;;3.80;3.20;;;;;;;16.13;62.62;100587.57;105946;1254;73537;-76
2023/09/05 01:27:06;;;;;;;3.60;3.00;;;;;;;16.10;62.75;100592.32;105774;1260;60522;-76
2023/09/05 01:32:23;;;;;;;4.30;2.80;;;;;;;16.08;62.95;100590.91;102890;1293;599557;-76
2023/09/05 01:34:51;;;;;;;3.90;3.40;;;;;;;16.06;62.87;100589.48;104849;1272;59302;-76
2023/09/05 01:37:18;;;;;;;4.00;3.00;;;;;;;16.05;63.19;100589.95;104998;1267;60017;-73
2023/09/05 01:39:45;;;;;;;4.00;3.10;;;;;;;16.01;63.20;100590.33;105137;1267;72286;-75
2023/09/05 01:42:13;;;;;;;4.80;3.70;;;;;;;16.00;63.18;100592.61;105114;1270;69133;-74
2023/09/05 01:44:40;;;;;;;4.20;3.40;;;;;;;15.98;63.07;100596.41;105255;1267;71524;-73
2023/09/05 01:47:09;;;;;;;4.30;3.30;;;;;;;15.97;63.07;100601.42;106614;1262;219068;-74
2023/09/05 01:49:37;;;;;;;4.00;3.30;;;;;;;15.95;63.11;100599.70;107792;1257;59212;-74
2023/09/05 01:52:06;;;;;;;5.80;3.40;;;;;;;15.94;63.13;100599.48;108027;1260;70650;-74
2023/09/05 01:54:38;;;;;;;6.10;3.10;;;;;;;15.93;63.34;100596.00;107573;1256;70026;-75
2023/09/05 01:57:06;;;;;;;5.90;3.40;;;;;;;15.92;63.67;100594.30;106822;1257;70577;-72
2023/09/05 01:59:34;;;;;;;4.80;3.60;;;;;;;15.90;64.08;100591.23;106085;1260;59263;-74
2023/09/05 02:02:01;;;;;;;4.90;3.40;;;;;;;15.88;64.27;100588.75;105276;1258;60045;-71
2023/09/05 02:04:29;;;;;;;3.90;3.20;;;;;;;15.84;64.20;100590.42;105747;1250;73091;-73
2023/09/05 02:06:58;;;;;;;4.20;3.30;;;;;;;15.80;64.12;100591.96;105806;1251;70392;-74
2023/09/05 02:09:26;;;;;;;4.20;3.00;;;;;;;15.77;64.11;100596.45;106027;1254;72316;-73
2023/09/05 02:11:53;;;;;;;6.70;3.60;;;;;;;15.74;64.29;100597.17;106179;1256;60002;-73
2023/09/05 02:14:21;;;;;;;5.40;3.30;;;;;;;15.71;64.31;100591.62;106073;1251;59779;-72
2023/09/05 02:16:48;;;;;;;3.80;2.90;;;;;;;15.67;64.40;100596.47;105793;1251;73058;-73
2023/09/05 02:19:16;;;;;;;6.20;3.40;;;;;;;15.65;64.48;100597.59;105831;1259;68970;-72
2023/09/05 02:21:43;;;;;;;7.60;3.60;;;;;;;15.63;64.69;100606.05;105699;1258;72487;-72
2023/09/05 02:24:11;;;;;;;5.70;3.40;;;;;;;15.61;64.79;100607.23;106014;1251;59648;-74
2023/09/05 02:26:38;;;;;;;5.40;3.30;;;;;;;15.59;64.93;100610.89;105949;1254;60155;-73
2023/09/05 02:29:08;;;;;;;6.00;3.80;;;;;;;15.55;65.04;100608.58;106047;1257;72143;-71
2023/09/05 02:31:35;;;;;;;4.70;3.30;;;;;;;15.53;65.12;100607.27;105703;1251;70002;-72
2023/09/05 02:34:02;;;;;;;5.40;3.00;;;;;;;15.50;65.27;100606.30;105687;1257;72696;-73
2023/09/05 02:36:30;;;;;;;3.30;2.80;;;;;;;15.46;65.34;100608.72;105656;1256;60118;-73
2023/09/05 02:38:59;;;;;;;4.10;3.20;;;;;;;15.43;65.42;100609.25;105949;1252;60122;-73
2023/09/05 02:41:26;;;;;;;7.80;3.70;;;;;;;15.41;65.43;100606.48;105674;1256;72049;-75
2023/09/05 02:43:54;;;;;;;4.90;3.50;;;;;;;15.40;65.56;100607.36;105729;1253;69344;-73
2023/09/05 02:46:21;;;;;;;4.90;3.30;;;;;;;15.48;65.44;100608.91;105536;1260;72493;-72
2023/09/05 02:48:49;;;;;;;4.20;3.10;;;;;;;15.58;65.44;100612.91;105873;1259;59730;-75
2023/09/05 02:51:16;;;;;;;5.80;3.80;;;;;;;15.58;65.49;100613.23;105751;1252;59653;-73
2023/09/05 02:53:44;;;;;;;3.70;2.90;;;;;;;15.57;65.54;100615.23;105555;1252;71780;-70
2023/09/05 02:56:12;;;;;;;5.40;3.50;;;;;;;15.56;65.57;100619.96;105741;1254;70756;-72
2023/09/05 02:58:40;;;;;;;5.70;3.70;;;;;;;15.55;65.50;100621.11;105644;1257;72698;-73
2023/09/05 03:01:11;;;;;;;7.20;3.30;;;;;;;15.54;65.58;100622.11;105517;1253;60231;-72
2023/09/05 03:03:39;;;;;;;7.20;3.20;;;;;;;15.53;65.69;100624.73;105632;1256;60365;-75
2023/09/05 03:06:11;;;;;;;6.20;3.70;;;;;;;15.51;65.74;100623.38;105826;1253;73089;-74
2023/09/05 03:08:41;;;;;;;5.60;3.20;;;;;;;15.47;65.84;100621.45;105742;1254;70351;-75
2023/09/05 03:11:09;;;;;;;4.80;3.10;;;;;;;15.44;65.93;100625.77;105838;1254;70797;-74
2023/09/05 03:13:37;;;;;;;5.60;3.70;;;;;;;15.41;66.06;100630.21;105797;1254;60187;-78
2023/09/05 03:16:05;;;;;;;5.10;3.40;;;;;;;15.38;66.32;100630.89;106352;1252;59631;-73
2023/09/05 03:18:33;;;;;;;5.00;3.90;;;;;;;15.36;66.36;100639.38;106644;1254;71524;-75
2023/09/05 03:21:01;;;;;;;5.90;3.70;;;;;;;15.33;66.53;100638.29;106011;1253;69022;-72
2023/09/05 03:23:29;;;;;;;6.30;3.50;;;;;;;15.32;66.69;100636.84;106023;1259;72404;-73
2023/09/05 03:25:56;;;;;;;6.70;3.60;;;;;;;15.39;66.73;100637.61;105889;1258;61646;-72
2023/09/05 03:28:24;;;;;;;5.50;3.50;;;;;;;15.45;66.64;100636.84;105519;1256;60068;-73
2023/09/05 03:30:52;;;;;;;8.00;3.50;;;;;;;15.45;66.79;100637.85;105913;1254;72185;-73
2023/09/05 03:33:20;;;;;;;5.80;3.90;;;;;;;15.43;66.75;100636.58;105838;1259;69274;-74
2023/09/05 03:35:47;;;;;;;10.50;4.20;;;;;;;15.43;66.84;100639.45;105482;1258;71426;-75
2023/09/05 03:38:14;;;;;;;5.10;3.70;;;;;;;15.43;66.81;100636.94;105820;1254;60045;-73
2023/09/05 03:40:42;;;;;;;5.20;3.80;;;;;;;15.42;66.80;100639.98;105710;1254;60279;-72
2023/09/05 03:43:10;;;;;;;6.60;3.60;;;;;;;15.41;66.87;100639.88;105417;1254;73089;-74
2023/09/05 03:45:37;;;;;;;5.10;3.70;;;;;;;15.41;66.93;100640.25;105738;1254;70003;-73
2023/09/05 03:48:05;;;;;;;4.40;3.40;;;;;;;15.39;66.87;100641.83;105730;1254;72810;-72
2023/09/05 03:50:32;;;;;;;4.60;3.70;;;;;;;15.39;66.89;100644.95;105735;1258;59739;-72
2023/09/05 03:53:00;;;;;;;5.20;3.70;;;;;;;15.38;67.04;100649.19;105431;1257;60010;-74
2023/09/05 03:55:27;;;;;;;4.20;3.50;;;;;;;15.38;67.08;100655.45;105376;1254;71931;-74
2023/09/05 03:57:55;;;;;;;10.20;7.30;;;;;;;15.37;67.19;100650.22;105422;1254;70321;-74
2023/09/05 04:00:22;;;;;;;9.50;4.40;;;;;;;15.36;67.14;100654.61;105366;1259;71060;-74
2023/09/05 04:02:49;;;;;;;6.20;3.60;;;;;;;15.36;67.21;100658.63;105503;1253;62232;-74
2023/09/05 04:05:18;;;;;;;4.60;3.40;;;;;;;15.48;67.04;100656.73;105545;1254;60228;-74
2023/09/05 04:07:45;;;;;;;9.00;3.90;;;;;;;15.63;67.09;100660.71;105393;1254;71826;-71
2023/09/05 04:10:12;;;;;;;6.20;3.80;;;;;;;15.71;66.77;100657.81;105480;1254;70157;-72
2023/09/05 04:12:40;;;;;;;4.60;3.70;;;;;;;15.78;66.64;100656.85;105489;1254;71684;-73
2023/09/05 04:15:09;;;;;;;5.70;3.80;;;;;;;15.84;66.32;100656.70;105819;1254;61142;-74
2023/09/05 04:17:37;;;;;;;5.90;4.20;;;;;;;15.88;66.24;100656.52;106204;1254;59153;-71
2023/09/05 04:20:08;;;;;;;6.70;4.20;;;;;;;15.95;66.00;100658.48;105823;1257;72849;-74
2023/09/05 04:22:36;;;;;;;6.60;4.00;;;;;;;16.02;65.90;100657.48;106276;1259;68720;-73
2023/09/05 04:25:03;;;;;;;6.70;4.10;;;;;;;16.07;65.70;100659.52;106690;1255;71061;-71
2023/09/05 04:27:31;;;;;;;8.10;3.80;;;;;;;16.13;65.64;100661.20;106382;1254;60050;-71
2023/09/05 04:29:58;;;;;;;4.50;4.00;;;;;;;16.18;65.30;100662.11;105660;1254;59598;-73
2023/09/05 04:32:31;;;;;;;6.70;4.00;;;;;;;16.22;65.03;100659.49;105744;1251;73084;-71
2023/09/05 04:35:02;;;;;;;6.40;4.10;;;;;;;16.28;64.73;100660.48;105680;1251;72344;-72
2023/09/05 04:37:30;;;;;;;5.90;3.80;;;;;;;16.32;64.42;100661.25;105525;1260;72705;-73
2023/09/05 04:40:00;;;;;;;7.20;4.60;;;;;;;16.36;64.10;100662.23;105901;1254;59846;-73
2023/09/05 04:42:28;;;;;;;4.40;3.80;;;;;;;16.41;64.03;100662.34;105489;1251;60027;-75
2023/09/05 04:44:56;;;;;;;4.70;3.70;;;;;;;16.44;63.74;100663.33;106068;1256;73036;-74
2023/09/05 04:47:27;;;;;;;6.20;4.00;;;;;;;16.49;63.45;100662.41;105941;1254;70150;-74
2023/09/05 04:49:58;;;;;;;8.50;3.90;;;;;;;16.54;63.10;100663.98;105327;1257;72982;-75
2023/09/05 04:52:29;;;;;;;5.60;4.00;;;;;;;16.60;62.94;100654.86;105866;1254;60050;-73
2023/09/05 04:54:58;;;;;;;9.20;4.10;;;;;;;16.65;62.94;100659.70;105916;1252;60064;-73
2023/09/05 04:57:25;;;;;;;7.70;3.90;;;;;;;16.72;62.80;100657.30;106060;1251;72089;-73
2023/09/05 04:59:59;;;;;;;4.60;3.80;;;;;;;16.80;62.64;100653.36;106022;1256;68307;-73
2023/09/05 05:02:28;;;;;;;12.60;5.20;;;;;;;16.89;62.28;100650.07;105505;1257;71292;-74
2023/09/05 05:04:56;;;;;;;7.40;4.10;;;;;;;16.95;61.97;100650.66;105950;1253;59724;-73
2023/09/05 05:07:23;;;;;;;7.10;4.00;;;;;;;16.99;61.36;100652.79;105983;1256;59651;-74
2023/09/05 05:09:50;;;;;;;6.70;4.30;;;;;;;17.04;61.33;100652.97;105979;1253;73100;-73
2023/09/05 05:12:18;;;;;;;7.50;4.10;;;;;;;17.08;61.21;100650.50;106094;1257;70257;-73
2023/09/05 05:14:45;;;;;;;7.90;3.90;;;;;;;17.13;61.25;100651.63;105884;1254;73104;-74
2023/09/05 05:17:13;;;;;;;7.70;4.00;;;;;;;17.20;61.19;100653.61;105585;1254;60268;-76
2023/09/05 05:19:41;;;;;;;8.60;4.30;;;;;;;17.28;61.13;100651.79;105898;1256;59570;-74
2023/09/05 05:22:08;;;;;;;7.20;3.50;;;;;;;17.37;60.94;100648.38;105617;1253;71689;-73
2023/09/05 05:24:36;;;;;;;7.60;4.20;;;;;;;17.45;60.78;100645.91;105809;1256;70287;-75
2023/09/05 05:27:04;;;;;;;5.00;3.50;;;;;;;17.54;60.74;100646.58;106165;1254;71251;-73
2023/09/05 05:29:32;;;;;;;5.50;4.00;;;;;;;17.62;60.42;100641.23;106117;1254;59636;-71
2023/09/05 05:32:00;;;;;;;4.60;3.60;;;;;;;17.70;60.45;100639.41;106005;1256;59544;-75
2023/09/05 05:34:29;;;;;;;7.20;3.80;;;;;;;17.80;60.32;100646.40;105767;1254;71907;-70
2023/09/05 05:36:57;;;;;;;4.80;4.00;;;;;;;17.90;60.10;100651.77;105774;1254;72242;-70
2023/09/05 05:39:25;;;;;;;8.50;4.60;;;;;;;18.01;60.14;100651.15;105652;1254;72758;-70
2023/09/05 05:41:54;;;;;;;7.80;4.30;;;;;;;18.12;60.00;100647.89;105869;1253;60810;-69
2023/09/05 05:44:21;;;;;;;7.60;3.90;;;;;;;18.23;59.78;100648.50;105651;1258;60442;-69
2023/09/05 05:46:48;;;;;;;5.30;4.10;;;;;;;18.32;59.35;100651.13;105694;1254;74262;-69
2023/09/05 05:49:16;;;;;;;7.10;4.00;;;;;;;18.39;59.11;100652.70;105526;1254;70092;-71
2023/09/05 05:51:44;;;;;;;5.30;3.60;;;;;;;18.48;59.10;100654.05;105579;1251;71064;-71
2023/09/05 05:54:11;;;;;;;8.10;4.20;;;;;;;18.57;58.82;100653.30;105418;1258;60507;-70
2023/09/05 05:56:38;;;;;;;6.20;3.80;;;;;;;18.65;58.77;100658.29;105711;1256;60464;-70
2023/09/05 05:59:06;;;;;;;5.20;3.40;;;;;;;18.74;58.48;100657.63;105605;1256;73853;-70
2023/09/05 06:01:34;;;;;;;6.10;3.20;;;;;;;18.82;57.82;100662.06;105486;1256;69433;-69
2023/09/05 06:04:02;;;;;;;7.80;3.50;;;;;;;18.89;57.41;100663.69;105682;1252;71444;-70
2023/09/05 06:06:30;;;;;;;6.70;3.60;;;;;;;18.97;57.33;100659.84;105596;1257;60415;-71
2023/09/05 06:08:57;;;;;;;7.90;4.20;;;;;;;19.04;57.15;100660.44;105472;1257;60487;-70
2023/09/05 06:11:25;;;;;;;8.00;3.60;;;;;;;19.12;57.07;100662.25;105507;1254;72026;-70
2023/09/05 06:13:52;;;;;;;8.30;3.90;;;;;;;19.21;56.85;100656.43;105348;1259;68882;-70
2023/09/05 06:16:20;;;;;;;7.00;3.90;;;;;;;19.30;56.71;100653.15;105662;1254;72666;-70
2023/09/05 06:18:48;;;;;;;6.20;3.80;;;;;;;19.37;56.67;100655.38;105588;1254;60975;-70
2023/09/05 06:21:15;;;;;;;4.50;3.70;;;;;;;19.46;56.52;100655.17;105415;1252;60441;-70
2023/09/05 06:23:43;;;;;;;8.20;3.50;;;;;;;19.54;56.46;100659.45;105553;1252;73886;-71
2023/09/05 06:26:10;;;;;;;6.20;4.00;;;;;;;19.61;56.36;100658.47;105427;1254;69987;-68
2023/09/05 06:28:37;;;;;;;5.30;3.70;;;;;;;19.68;56.26;100657.77;105409;1253;71408;-69
2023/09/05 06:31:05;;;;;;;8.40;3.30;;;;;;;19.76;56.20;100651.67;105439;1251;61183;-71
2023/09/05 06:33:33;;;;;;;4.50;3.40;;;;;;;19.85;55.99;100651.02;105453;1251;60435;-69
2023/09/05 06:36:07;;;;;;;7.20;3.40;;;;;;;19.90;55.88;100650.36;105435;1251;71585;-70
2023/09/05 06:38:36;;;;;;;3.90;3.10;;;;;;;19.94;55.74;100652.18;105648;1257;68690;-70
2023/09/05 06:41:07;;;;;;;4.80;3.30;;;;;;;20.00;55.79;100653.80;105407;1253;72776;-70
2023/09/05 06:43:34;;;;;;;4.60;3.40;;;;;;;20.07;55.35;100651.71;105280;1254;60357;-69
2023/09/05 06:46:06;;;;;;;3.50;3.20;;;;;;;20.11;55.16;100651.14;105423;1255;60418;-69
2023/09/05 06:48:34;;;;;;;4.70;3.30;;;;;;;20.17;55.12;100656.23;105745;1251;73890;-69
2023/09/05 06:51:02;;;;;;;3.40;3.10;;;;;;;20.22;55.04;100651.41;105724;1255;70064;-69
2023/09/05 06:53:31;;;;;;;5.50;3.30;;;;;;;20.26;54.66;100651.61;105597;1256;71350;-69
2023/09/05 06:55:58;;;;;;;4.20;3.30;;;;;;;20.30;54.61;100647.09;105856;1254;60542;-70
2023/09/05 06:58:26;;;;;;;5.30;3.40;;;;;;;20.35;54.28;100648.33;105747;1251;60356;-70
2023/09/05 07:00:55;;;;;;;3.10;2.80;;;;;;;20.41;54.21;100646.45;105820;1251;72604;-69
2023/09/05 07:03:24;;;;;;;6.50;3.50;;;;;;;20.47;54.08;100642.95;105465;1259;68853;-71
2023/09/05 07:05:52;;;;;;;6.00;3.90;;;;;;;20.51;53.82;100645.55;105781;1254;72703;-71
2023/09/05 07:08:32;;;;;;;5.70;3.00;;;;;;;20.52;53.72;100641.48;105608;1254;61379;-71
2023/09/05 07:11:00;;;;;;;6.00;3.00;;;;;;;20.55;53.52;100638.20;105345;1255;60421;-69
2023/09/05 07:13:28;;;;;;;3.90;3.40;;;;;;;20.60;53.41;100635.27;105342;1257;74061;-72
2023/09/05 07:15:57;;;;;;;3.90;2.90;;;;;;;20.65;53.29;100639.48;105428;1257;70430;-70
2023/09/05 07:18:25;;;;;;;3.80;3.20;;;;;;;20.71;53.09;100639.84;105474;1254;72683;-71
2023/09/05 07:20:53;;;;;;;4.80;3.10;;;;;;;20.76;53.08;100635.16;105525;1254;60347;-71
2023/09/05 07:23:21;;;;;;;4.90;3.20;;;;;;;20.83;52.98;100633.51;105575;1254;60511;-71
2023/09/05 07:25:49;;;;;;;3.40;3.00;;;;;;;20.90;52.94;100626.75;105490;1252;75799;-72
2023/09/05 07:28:16;;;;;;;5.00;3.40;;;;;;;20.99;52.82;100625.34;105582;1251;69862;-72
2023/09/05 07:30:44;;;;;;;3.90;3.20;;;;;;;21.08;52.43;100624.17;105532;1253;72685;-73
2023/09/05 07:33:12;;;;;;;5.40;3.10;;;;;;;21.15;52.50;100627.79;105718;1256;60411;-73
2023/09/05 07:35:39;;;;;;;4.10;3.60;;;;;;;21.24;52.40;100625.99;105800;1251;60450;-73
2023/09/05 07:38:07;;;;;;;7.90;3.40;;;;;;;21.32;52.04;100625.52;105623;1251;73830;-72
2023/09/05 07:40:36;;;;;;;3.60;2.70;;;;;;;21.40;51.75;100631.52;105677;1256;68684;-72
2023/09/05 07:43:03;;;;;;;3.40;2.50;;;;;;;21.48;50.67;100627.67;105499;1254;73019;-72
2023/09/05 07:45:32;;;;;;;3.80;2.90;;;;;;;21.57;50.09;100627.52;105640;1254;60465;-71
2023/09/05 07:48:00;;;;;;;4.00;3.00;;;;;;;21.65;50.26;100629.95;105797;1256;60633;-72
2023/09/05 07:50:28;;;;;;;4.50;2.90;;;;;;;21.75;50.11;100618.83;105747;1252;73925;-70
2023/09/05 07:52:55;;;;;;;4.50;3.00;;;;;;;21.87;49.37;100620.50;105498;1256;67767;-71
2023/09/05 07:55:23;;;;;;;2.70;2.50;;;;;;;21.99;48.62;100620.61;105713;1254;71329;-71
2023/09/05 07:57:51;;;;;;;3.40;3.10;;;;;;;22.09;47.26;100619.80;105566;1256;60437;-71
2023/09/05 08:00:19;;;;;;;4.00;3.00;;;;;;;22.16;46.29;100610.70;105584;1251;60471;-72
2023/09/05 08:02:46;;;;;;;3.30;2.50;;;;;;;22.24;45.76;100609.94;105696;1257;73806;-71
2023/09/05 08:05:14;;;;;;;3.50;2.90;;;;;;;22.31;45.43;100616.23;105764;1251;70291;-72
2023/09/05 08:07:42;;;;;;;4.10;3.00;;;;;;;22.40;44.55;100615.14;105775;1251;72686;-72
2023/09/05 08:10:10;;;;;;;3.70;3.00;;;;;;;22.47;43.63;100613.36;105719;1251;60527;-72
2023/09/05 08:12:38;;;;;;;6.90;3.30;;;;;;;22.54;42.68;100612.04;105632;1251;60435;-71
2023/09/05 08:15:06;;;;;;;4.00;2.90;;;;;;;22.65;41.85;100617.13;105956;1256;73851;-72
2023/09/05 08:17:33;;;;;;;3.00;2.70;;;;;;;22.77;42.06;100617.52;105846;1251;70074;-71
2023/09/05 08:20:03;;;;;;;4.20;3.00;;;;;;;22.91;41.92;100620.13;106071;1256;71486;-71
2023/09/05 08:22:31;;;;;;;3.60;3.20;;;;;;;23.05;40.78;100615.52;106128;1256;60494;-72
2023/09/05 08:24:59;;;;;;;5.90;3.60;;;;;;;23.13;40.21;100621.95;105665;1257;60566;-71
2023/09/05 08:27:29;;;;;;;5.00;3.00;;;;;;;23.18;40.26;100618.89;105637;1251;73852;-73
2023/09/05 08:29:57;;;;;;;4.60;3.30;;;;;;;23.26;40.57;100619.70;105537;1257;70538;-71
2023/09/05 08:32:25;;;;;;;5.10;3.20;;;;;;;23.37;39.80;100612.98;105738;1254;72684;-71
2023/09/05 08:34:53;;;;;;;3.20;2.90;;;;;;;23.45;39.00;100617.11;105482;1254;60506;-71
2023/09/05 08:37:20;;;;;;;4.30;3.00;;;;;;;23.54;38.78;100614.89;105636;1254;60339;-71
2023/09/05 08:39:48;;;;;;;3.70;3.40;;;;;;;23.62;38.18;100609.55;105766;1251;73810;-69
2023/09/05 08:42:16;;;;;;;4.00;3.40;;;;;;;23.70;38.71;100611.12;105612;1251;70354;-71
2023/09/05 08:44:43;;;;;;;5.30;3.20;;;;;;;23.83;39.75;100612.73;105700;1252;71313;-72
2023/09/05 08:47:11;;;;;;;4.40;3.40;;;;;;;23.99;40.31;100613.55;105541;1259;60482;-72
2023/09/05 08:49:38;;;;;;;3.40;3.10;;;;;;;24.20;40.72;100610.63;105637;1257;62341;-71
2023/09/05 08:52:06;;;;;;;3.90;3.10;;;;;;;24.43;40.79;100614.45;105712;1251;74870;-70
2023/09/05 08:54:34;;;;;;;3.80;2.90;;;;;;;24.65;41.06;100610.84;106012;1256;69097;-72
2023/09/05 08:57:03;;;;;;;4.30;3.60;;;;;;;24.86;40.81;100612.40;105680;1254;71547;-72
2023/09/05 08:59:32;;;;;;;3.10;2.80;;;;;;;25.05;40.94;100605.33;105783;1251;60519;-72
2023/09/05 09:02:00;;;;;;;5.80;3.30;;;;;;;25.29;40.26;100609.91;105925;1257;60453;-72
2023/09/05 09:04:29;;;;;;;5.30;3.70;;;;;;;25.61;39.98;100616.35;105863;1251;72635;-73
2023/09/05 09:07:00;;;;;;;3.50;3.20;;;;;;;26.06;38.76;100616.20;106302;1251;69128;-73
2023/09/05 09:09:35;;;;;;;5.60;3.60;;;;;;;26.57;37.70;100609.55;106191;1256;72702;-73
2023/09/05 09:12:03;;;;;;;4.40;3.70;;;;;;;27.12;36.98;100616.48;105781;1257;60419;-72
2023/09/05 09:14:31;;;;;;;4.80;3.70;;;;;;;27.67;35.92;100614.66;105964;1251;60783;-73
2023/09/05 09:17:00;;;;;;;3.90;3.40;;;;;;;28.24;34.90;100602.73;106185;1251;72640;-71
2023/09/05 09:19:31;;;;;;;4.30;3.30;;;;;;;28.73;34.32;100597.07;106231;1255;69171;-73
2023/09/05 09:22:00;;;;;;;4.20;3.20;;;;;;;29.24;33.50;100596.89;106033;1254;71773;-72
2023/09/05 09:24:34;;;;;;;5.50;3.30;;;;;;;29.73;33.30;100594.38;106912;1252;60895;-73
2023/09/05 09:27:03;;;;;;;3.50;3.20;;;;;;;30.28;32.62;100592.60;105951;1257;62274;-72
2023/09/05 09:29:31;;;;;;;5.30;3.20;;;;;;;30.75;32.40;100590.00;105565;1251;72626;-72
2023/09/05 09:32:05;;;;;;;4.30;3.80;;;;;;;31.25;31.70;100584.29;105778;1257;69890;-72
2023/09/05 09:34:35;;;;;;;3.90;3.40;;;;;;;31.72;30.76;100585.99;105972;1255;71777;-71
2023/09/05 09:37:03;;;;;;;4.10;3.20;;;;;;;32.18;30.14;100584.06;105670;1256;61194;-72
2023/09/05 09:39:32;;;;;;;4.30;3.80;;;;;;;32.50;29.57;100578.23;105543;1260;60431;-72
2023/09/05 09:42:00;;;;;;;3.70;3.30;;;;;;;32.70;29.16;100585.97;105627;1251;72607;-73
2023/09/05 09:44:30;;;;;;;4.40;4.00;;;;;;;32.82;29.18;100584.75;105608;1256;69930;-72
2023/09/05 09:46:58;;;;;;;4.50;4.10;;;;;;;33.15;28.89;100574.93;105570;1251;71424;-70
2023/09/05 09:49:28;;;;;;;4.20;3.70;;;;;;;33.43;28.81;100576.40;105683;1252;60549;-70
2023/09/05 09:51:57;;;;;;;3.90;3.50;;;;;;;33.69;28.78;100576.92;105749;1253;60546;-73
2023/09/05 09:54:38;;;;;;;4.00;3.30;;;;;;;34.01;27.34;100569.49;105534;1251;73820;-72
2023/09/05 09:57:06;;;;;;;3.00;2.80;;;;;;;34.26;26.95;100575.52;105681;1251;70208;-71
2023/09/05 09:59:35;;;;;;;4.40;3.40;;;;;;;34.46;27.39;100568.95;105581;1251;72739;-71
2023/09/05 10:02:05;;;;;;;3.90;3.60;;;;;;;34.61;27.48;100564.32;105678;1252;60975;-73
2023/09/05 10:04:33;;;;;;;3.90;3.50;;;;;;;34.85;27.23;100565.79;105917;1256;60415;-73
2023/09/05 10:07:01;;;;;;;3.90;3.40;;;;;;;35.11;26.76;100569.55;105935;1252;63635;-73
2023/09/05 10:09:30;;;;;;;3.70;2.90;;;;;;;35.27;26.69;100562.52;105792;1256;60483;-73
2023/09/05 10:11:59;;;;;;;3.40;3.10;;;;;;;35.41;26.17;100564.73;105647;1254;63923;-74
2023/09/05 10:14:28;;;;;;;4.10;3.30;;;;;;;35.53;25.85;100564.48;105598;1255;60781;-74
2023/09/05 10:16:57;;;;;;;4.30;3.90;;;;;;;35.77;25.94;100561.44;105602;1251;60347;-71
2023/09/05 10:19:31;;;;;;;4.10;3.70;;;;;;;35.99;26.02;100560.95;105833;1251;64920;-72
2023/09/05 10:21:59;;;;;;;3.90;3.40;;;;;;;36.14;26.25;100560.79;105737;1257;60398;-71
2023/09/05 10:24:31;;;;;;;3.70;3.40;;;;;;;36.38;25.98;100559.85;105652;1257;63723;-73
2023/09/05 10:26:58;;;;;;;3.50;3.20;;;;;;;36.71;25.50;100552.34;105715;1252;60633;-74
2023/09/05 10:29:33;;;;;;;3.40;3.10;;;;;;;36.95;25.03;100542.92;105497;1257;60446;-71
2023/09/05 10:32:01;;;;;;;3.20;2.90;;;;;;;37.06;24.61;100535.73;105524;1252;64921;-73
2023/09/05 10:34:47;;;;;;;3.80;3.30;;;;;;;37.15;24.88;100535.53;105504;1251;61405;-73
2023/09/05 10:37:21;;;;;;;3.50;3.20;;;;;;;37.30;24.65;100541.09;105515;1254;63758;-72
2023/09/05 10:39:50;;;;;;;4.10;3.80;;;;;;;37.49;24.14;100541.00;105629;1256;62118;-73
2023/09/05 10:42:17;;;;;;;4.00;3.20;;;;;;;37.64;23.98;100541.12;105684;1251;60514;-73
2023/09/05 10:44:45;;;;;;;5.10;3.90;;;;;;;37.90;24.22;100540.91;105481;1251;74331;-72
2023/09/05 10:47:29;;;;;;;3.90;3.60;;;;;;;38.12;24.13;100534.86;105681;1251;60578;-71
2023/09/05 10:50:03;;;;;;;3.80;3.50;;;;;;;38.30;23.63;100533.73;105600;1254;63847;-73
2023/09/05 10:52:31;;;;;;;3.70;3.40;;;;;;;38.43;23.75;100534.04;105632;1256;61035;-72
2023/09/05 10:55:29;;;;;;;3.80;3.50;;;;;;;38.67;23.47;100533.84;105414;1251;61278;-68
2023/09/05 10:57:57;;;;;;;3.80;3.30;;;;;;;38.88;23.51;100538.22;105485;1251;65331;-73
2023/09/05 11:00:29;;;;;;;4.10;3.80;;;;;;;38.99;23.56;100536.30;105802;1256;60430;-71
2023/09/05 11:03:12;;;;;;;4.70;3.40;;;;;;;39.03;23.20;100537.82;105684;1256;64161;-73
2023/09/05 11:05:42;;;;;;;4.00;3.70;;;;;;;39.22;23.49;100536.91;105678;1251;60648;-73
2023/09/05 11:08:22;;;;;;;3.50;3.20;;;;;;;39.50;23.34;100533.05;105932;1252;60540;-72
2023/09/05 11:10:53;;;;;;;3.80;3.50;;;;;;;39.78;23.17;100527.71;105669;1256;63720;-74
2023/09/05 11:13:21;;;;;;;4.60;3.60;;;;;;;39.86;23.26;100530.77;105629;1251;61674;-75
2023/09/05 11:15:57;;;;;;;4.00;3.60;;;;;;;39.87;22.82;100533.52;105712;1251;62585;-73
2023/09/05 11:18:24;;;;;;;6.00;3.40;;;;;;;39.80;22.87;100527.39;105646;1254;60858;-72
2023/09/05 11:20:51;;;;;;;3.80;3.40;;;;;;;39.79;22.91;100526.06;105670;1257;60431;-73
2023/09/05 11:23:21;;;;;;;3.60;3.30;;;;;;;39.77;23.02;100524.27;106061;1257;65131;-74
2023/09/05 11:25:55;;;;;;;3.70;3.40;;;;;;;39.86;22.77;100530.30;106012;1257;61364;-74
2023/09/05 11:28:24;;;;;;;3.80;3.50;;;;;;;39.88;22.95;100525.92;105673;1254;66496;-73